sensor_id;sensor_type;location;lat;lon;timestamp;P1;durP1;ratioP1;P2;durP2;ratioP2
68229;SDS011;55048;52.220;5.160;2022-08-05T00:01:52;5.45;;;1.02;;
68229;SDS011;55048;52.220;5.160;2022-08-05T00:04:17;6.72;;;0.85;;
68229;SDS011;55048;52.220;5.160;2022-08-05T00:06:42;7.50;;;1.10;;
68229;SDS011;55048;52.220;5.160;2022-08-05T00:09:08;7.00;;;0.90;;
68229;SDS011;55048;52.220;5.160;2022-08-05T00:11:34;5.88;;;0.80;;
68229;SDS011;55048;52.220;5.160;2022-08-05T00:13:59;4.97;;;0.70;;
68229;SDS011;55048;52.220;5.160;2022-08-05T00:16:24;2.85;;;0.73;;
68229;SDS011;55048;52.220;5.160;2022-08-05T00:18:50;6.05;;;0.93;;
68229;SDS011;55048;52.220;5.160;2022-08-05T00:21:16;4.35;;;0.75;;
68229;SDS011;55048;52.220;5.160;2022-08-05T00:23:42;5.28;;;1.20;;
68229;SDS011;55048;52.220;5.160;2022-08-05T00:26:10;4.78;;;0.90;;
68229;SDS011;55048;52.220;5.160;2022-08-05T00:28:36;5.30;;;0.80;;
68229;SDS011;55048;52.220;5.160;2022-08-05T00:31:02;8.00;;;1.13;;
68229;SDS011;55048;52.220;5.160;2022-08-05T00:33:28;5.28;;;0.80;;
68229;SDS011;55048;52.220;5.160;2022-08-05T00:35:53;3.88;;;0.70;;
68229;SDS011;55048;52.220;5.160;2022-08-05T00:38:19;5.72;;;0.80;;
68229;SDS011;55048;52.220;5.160;2022-08-05T00:40:49;5.68;;;1.05;;
68229;SDS011;55048;52.220;5.160;2022-08-05T00:43:16;4.35;;;0.80;;
68229;SDS011;55048;52.220;5.160;2022-08-05T00:45:42;3.65;;;0.77;;
68229;SDS011;55048;52.220;5.160;2022-08-05T00:48:15;3.58;;;0.73;;
68229;SDS011;55048;52.220;5.160;2022-08-05T00:50:42;3.50;;;0.80;;
68229;SDS011;55048;52.220;5.160;2022-08-05T00:53:09;4.20;;;0.70;;
68229;SDS011;55048;52.220;5.160;2022-08-05T00:55:35;7.18;;;0.85;;
68229;SDS011;55048;52.220;5.160;2022-08-05T00:58:00;4.10;;;0.80;;
68229;SDS011;55048;52.220;5.160;2022-08-05T01:00:27;4.22;;;0.70;;
68229;SDS011;55048;52.220;5.160;2022-08-05T01:02:53;7.60;;;0.80;;
68229;SDS011;55048;52.220;5.160;2022-08-05T01:05:20;5.15;;;0.90;;
68229;SDS011;55048;52.220;5.160;2022-08-05T01:07:45;5.53;;;0.75;;
68229;SDS011;55048;52.220;5.160;2022-08-05T01:10:11;4.70;;;0.77;;
68229;SDS011;55048;52.220;5.160;2022-08-05T01:12:39;3.13;;;0.77;;
68229;SDS011;55048;52.220;5.160;2022-08-05T01:15:11;3.75;;;0.60;;
68229;SDS011;55048;52.220;5.160;2022-08-05T01:17:39;4.18;;;0.77;;
68229;SDS011;55048;52.220;5.160;2022-08-05T01:20:12;4.88;;;1.13;;
68229;SDS011;55048;52.220;5.160;2022-08-05T01:25:36;4.60;;;0.68;;
68229;SDS011;55048;52.220;5.160;2022-08-05T01:28:20;3.38;;;0.60;;
68229;SDS011;55048;52.220;5.160;2022-08-05T01:33:41;3.28;;;0.80;;
68229;SDS011;55048;52.220;5.160;2022-08-05T01:36:12;5.30;;;0.77;;
68229;SDS011;55048;52.220;5.160;2022-08-05T01:38:40;6.97;;;0.93;;
68229;SDS011;55048;52.220;5.160;2022-08-05T01:41:07;4.43;;;0.85;;
68229;SDS011;55048;52.220;5.160;2022-08-05T01:43:35;4.57;;;0.85;;
68229;SDS011;55048;52.220;5.160;2022-08-05T01:46:01;4.30;;;0.85;;
68229;SDS011;55048;52.220;5.160;2022-08-05T01:48:28;5.00;;;1.00;;
68229;SDS011;55048;52.220;5.160;2022-08-05T01:50:59;3.35;;;1.00;;
68229;SDS011;55048;52.220;5.160;2022-08-05T01:53:26;5.75;;;1.23;;
68229;SDS011;55048;52.220;5.160;2022-08-05T01:55:52;5.32;;;1.10;;
68229;SDS011;55048;52.220;5.160;2022-08-05T01:58:22;4.55;;;0.98;;
68229;SDS011;55048;52.220;5.160;2022-08-05T02:00:51;3.17;;;0.95;;
68229;SDS011;55048;52.220;5.160;2022-08-05T02:03:42;4.30;;;0.90;;
68229;SDS011;55048;52.220;5.160;2022-08-05T02:06:08;8.27;;;1.23;;
68229;SDS011;55048;52.220;5.160;2022-08-05T02:08:35;5.28;;;1.10;;
68229;SDS011;55048;52.220;5.160;2022-08-05T02:11:02;6.32;;;1.00;;
68229;SDS011;55048;52.220;5.160;2022-08-05T02:13:37;9.82;;;1.23;;
68229;SDS011;55048;52.220;5.160;2022-08-05T02:19:24;8.27;;;1.10;;
68229;SDS011;55048;52.220;5.160;2022-08-05T02:24:51;11.45;;;1.30;;
68229;SDS011;55048;52.220;5.160;2022-08-05T02:27:20;10.23;;;1.38;;
68229;SDS011;55048;52.220;5.160;2022-08-05T02:29:47;6.15;;;1.23;;
68229;SDS011;55048;52.220;5.160;2022-08-05T02:32:14;6.43;;;0.90;;
68229;SDS011;55048;52.220;5.160;2022-08-05T02:34:42;7.43;;;0.90;;
68229;SDS011;55048;52.220;5.160;2022-08-05T02:37:10;4.47;;;1.25;;
68229;SDS011;55048;52.220;5.160;2022-08-05T02:39:38;3.72;;;0.90;;
68229;SDS011;55048;52.220;5.160;2022-08-05T02:42:05;7.50;;;1.10;;
68229;SDS011;55048;52.220;5.160;2022-08-05T02:44:32;5.07;;;1.00;;
68229;SDS011;55048;52.220;5.160;2022-08-05T02:47:00;4.50;;;1.10;;
68229;SDS011;55048;52.220;5.160;2022-08-05T02:49:30;5.57;;;1.00;;
68229;SDS011;55048;52.220;5.160;2022-08-05T02:51:58;3.65;;;0.95;;
68229;SDS011;55048;52.220;5.160;2022-08-05T02:54:26;8.00;;;1.05;;
68229;SDS011;55048;52.220;5.160;2022-08-05T02:56:52;7.13;;;1.20;;
68229;SDS011;55048;52.220;5.160;2022-08-05T02:59:19;4.38;;;0.90;;
68229;SDS011;55048;52.220;5.160;2022-08-05T03:01:46;3.35;;;1.05;;
68229;SDS011;55048;52.220;5.160;2022-08-05T03:04:15;2.42;;;0.85;;
68229;SDS011;55048;52.220;5.160;2022-08-05T03:06:43;3.55;;;0.98;;
68229;SDS011;55048;52.220;5.160;2022-08-05T03:09:12;7.28;;;0.80;;
68229;SDS011;55048;52.220;5.160;2022-08-05T03:11:40;3.78;;;0.90;;
68229;SDS011;55048;52.220;5.160;2022-08-05T03:14:07;4.95;;;1.05;;
68229;SDS011;55048;52.220;5.160;2022-08-05T03:16:32;4.65;;;0.77;;
68229;SDS011;55048;52.220;5.160;2022-08-05T03:18:58;4.30;;;0.80;;
68229;SDS011;55048;52.220;5.160;2022-08-05T03:21:25;4.20;;;1.00;;
68229;SDS011;55048;52.220;5.160;2022-08-05T03:23:50;4.80;;;0.75;;
68229;SDS011;55048;52.220;5.160;2022-08-05T03:26:16;6.40;;;0.90;;
68229;SDS011;55048;52.220;5.160;2022-08-05T03:28:42;2.90;;;0.80;;
68229;SDS011;55048;52.220;5.160;2022-08-05T03:31:07;2.80;;;0.80;;
68229;SDS011;55048;52.220;5.160;2022-08-05T03:33:33;2.50;;;0.70;;
68229;SDS011;55048;52.220;5.160;2022-08-05T03:35:59;5.35;;;0.80;;
68229;SDS011;55048;52.220;5.160;2022-08-05T03:38:25;4.07;;;0.77;;
68229;SDS011;55048;52.220;5.160;2022-08-05T03:40:51;2.83;;;0.77;;
68229;SDS011;55048;52.220;5.160;2022-08-05T03:43:17;5.25;;;0.70;;
68229;SDS011;55048;52.220;5.160;2022-08-05T03:45:44;8.45;;;1.13;;
68229;SDS011;55048;52.220;5.160;2022-08-05T03:48:10;4.95;;;0.90;;
68229;SDS011;55048;52.220;5.160;2022-08-05T03:53:13;6.10;;;1.00;;
68229;SDS011;55048;52.220;5.160;2022-08-05T03:55:49;3.78;;;0.77;;
68229;SDS011;55048;52.220;5.160;2022-08-05T03:58:18;5.38;;;0.80;;
68229;SDS011;55048;52.220;5.160;2022-08-05T04:00:46;2.23;;;0.87;;
68229;SDS011;55048;52.220;5.160;2022-08-05T04:03:15;3.33;;;0.90;;
68229;SDS011;55048;52.220;5.160;2022-08-05T04:05:41;8.80;;;0.80;;
68229;SDS011;55048;52.220;5.160;2022-08-05T04:08:09;3.10;;;0.70;;
68229;SDS011;55048;52.220;5.160;2022-08-05T04:10:36;4.93;;;0.63;;
68229;SDS011;55048;52.220;5.160;2022-08-05T04:13:02;2.00;;;0.70;;
68229;SDS011;55048;52.220;5.160;2022-08-05T04:15:28;4.80;;;0.70;;
68229;SDS011;55048;52.220;5.160;2022-08-05T04:17:54;3.45;;;0.80;;
68229;SDS011;55048;52.220;5.160;2022-08-05T04:20:20;4.65;;;0.90;;
68229;SDS011;55048;52.220;5.160;2022-08-05T04:22:47;3.05;;;0.77;;
68229;SDS011;55048;52.220;5.160;2022-08-05T04:25:13;3.13;;;0.80;;
68229;SDS011;55048;52.220;5.160;2022-08-05T04:27:38;2.40;;;0.60;;
68229;SDS011;55048;52.220;5.160;2022-08-05T04:30:04;3.10;;;0.80;;
68229;SDS011;55048;52.220;5.160;2022-08-05T04:32:30;4.13;;;0.70;;
68229;SDS011;55048;52.220;5.160;2022-08-05T04:34:56;1.67;;;0.63;;
68229;SDS011;55048;52.220;5.160;2022-08-05T04:37:21;4.03;;;0.70;;
68229;SDS011;55048;52.220;5.160;2022-08-05T04:39:46;4.25;;;0.93;;
68229;SDS011;55048;52.220;5.160;2022-08-05T04:42:12;5.78;;;0.70;;
68229;SDS011;55048;52.220;5.160;2022-08-05T04:44:37;3.08;;;0.80;;
68229;SDS011;55048;52.220;5.160;2022-08-05T04:47:02;9.88;;;1.50;;
68229;SDS011;55048;52.220;5.160;2022-08-05T04:49:28;4.30;;;0.95;;
68229;SDS011;55048;52.220;5.160;2022-08-05T04:51:53;7.00;;;1.00;;
68229;SDS011;55048;52.220;5.160;2022-08-05T04:54:19;4.47;;;0.90;;
68229;SDS011;55048;52.220;5.160;2022-08-05T04:56:45;3.33;;;0.80;;
68229;SDS011;55048;52.220;5.160;2022-08-05T04:59:12;4.25;;;0.75;;
68229;SDS011;55048;52.220;5.160;2022-08-05T05:01:38;4.75;;;0.80;;
68229;SDS011;55048;52.220;5.160;2022-08-05T05:04:03;6.15;;;1.10;;
68229;SDS011;55048;52.220;5.160;2022-08-05T05:06:29;4.18;;;0.93;;
68229;SDS011;55048;52.220;5.160;2022-08-05T05:08:54;5.38;;;1.00;;
68229;SDS011;55048;52.220;5.160;2022-08-05T05:11:20;3.50;;;0.82;;
68229;SDS011;55048;52.220;5.160;2022-08-05T05:13:46;3.88;;;0.70;;
68229;SDS011;55048;52.220;5.160;2022-08-05T05:16:11;3.72;;;0.80;;
68229;SDS011;55048;52.220;5.160;2022-08-05T05:18:37;1.85;;;0.57;;
68229;SDS011;55048;52.220;5.160;2022-08-05T05:21:02;2.65;;;0.75;;
68229;SDS011;55048;52.220;5.160;2022-08-05T05:23:28;5.40;;;0.60;;
68229;SDS011;55048;52.220;5.160;2022-08-05T05:25:53;3.67;;;0.80;;
68229;SDS011;55048;52.220;5.160;2022-08-05T05:28:20;3.58;;;0.82;;
68229;SDS011;55048;52.220;5.160;2022-08-05T05:30:45;6.10;;;0.80;;
68229;SDS011;55048;52.220;5.160;2022-08-05T05:33:11;4.88;;;0.90;;
68229;SDS011;55048;52.220;5.160;2022-08-05T05:35:36;4.03;;;0.70;;
68229;SDS011;55048;52.220;5.160;2022-08-05T05:38:02;3.92;;;0.80;;
68229;SDS011;55048;52.220;5.160;2022-08-05T05:40:29;1.67;;;0.60;;
68229;SDS011;55048;52.220;5.160;2022-08-05T05:42:55;5.45;;;0.60;;
68229;SDS011;55048;52.220;5.160;2022-08-05T05:45:21;6.53;;;0.60;;
68229;SDS011;55048;52.220;5.160;2022-08-05T05:47:47;2.17;;;0.63;;
68229;SDS011;55048;52.220;5.160;2022-08-05T05:50:14;3.40;;;0.60;;
68229;SDS011;55048;52.220;5.160;2022-08-05T05:52:41;3.35;;;0.70;;
68229;SDS011;55048;52.220;5.160;2022-08-05T05:55:08;5.78;;;0.70;;
68229;SDS011;55048;52.220;5.160;2022-08-05T05:57:39;2.47;;;0.50;;
68229;SDS011;55048;52.220;5.160;2022-08-05T06:00:06;1.65;;;0.57;;
68229;SDS011;55048;52.220;5.160;2022-08-05T06:02:37;2.17;;;0.52;;
68229;SDS011;55048;52.220;5.160;2022-08-05T06:05:02;4.30;;;0.60;;
68229;SDS011;55048;52.220;5.160;2022-08-05T06:07:28;2.60;;;0.50;;
68229;SDS011;55048;52.220;5.160;2022-08-05T06:09:53;1.67;;;0.45;;
68229;SDS011;55048;52.220;5.160;2022-08-05T06:12:19;5.32;;;0.60;;
68229;SDS011;55048;52.220;5.160;2022-08-05T06:14:44;1.55;;;0.43;;
68229;SDS011;55048;52.220;5.160;2022-08-05T06:17:10;2.03;;;0.40;;
68229;SDS011;55048;52.220;5.160;2022-08-05T06:19:36;3.40;;;0.43;;
68229;SDS011;55048;52.220;5.160;2022-08-05T06:22:02;0.88;;;0.30;;
68229;SDS011;55048;52.220;5.160;2022-08-05T06:24:28;1.52;;;0.40;;
68229;SDS011;55048;52.220;5.160;2022-08-05T06:26:54;4.47;;;0.40;;
68229;SDS011;55048;52.220;5.160;2022-08-05T06:29:19;3.42;;;0.30;;
68229;SDS011;55048;52.220;5.160;2022-08-05T06:31:45;1.85;;;0.30;;
68229;SDS011;55048;52.220;5.160;2022-08-05T06:34:10;1.98;;;0.30;;
68229;SDS011;55048;52.220;5.160;2022-08-05T06:36:36;5.38;;;0.50;;
68229;SDS011;55048;52.220;5.160;2022-08-05T06:39:01;1.08;;;0.30;;
68229;SDS011;55048;52.220;5.160;2022-08-05T06:41:27;2.70;;;0.30;;
68229;SDS011;55048;52.220;5.160;2022-08-05T06:43:54;3.42;;;0.47;;
68229;SDS011;55048;52.220;5.160;2022-08-05T06:46:19;1.20;;;0.30;;
68229;SDS011;55048;52.220;5.160;2022-08-05T06:48:44;3.70;;;0.38;;
68229;SDS011;55048;52.220;5.160;2022-08-05T06:51:10;3.13;;;0.30;;
68229;SDS011;55048;52.220;5.160;2022-08-05T06:53:35;2.25;;;0.38;;
68229;SDS011;55048;52.220;5.160;2022-08-05T06:56:01;3.75;;;0.30;;
68229;SDS011;55048;52.220;5.160;2022-08-05T06:58:29;2.25;;;0.30;;
68229;SDS011;55048;52.220;5.160;2022-08-05T07:00:59;1.23;;;0.30;;
68229;SDS011;55048;52.220;5.160;2022-08-05T07:03:26;1.42;;;0.30;;
68229;SDS011;55048;52.220;5.160;2022-08-05T07:05:52;1.27;;;0.20;;
68229;SDS011;55048;52.220;5.160;2022-08-05T07:08:18;1.73;;;0.30;;
68229;SDS011;55048;52.220;5.160;2022-08-05T07:10:44;2.08;;;0.35;;
68229;SDS011;55048;52.220;5.160;2022-08-05T07:13:10;1.38;;;0.43;;
68229;SDS011;55048;52.220;5.160;2022-08-05T07:15:54;2.03;;;0.40;;
68229;SDS011;55048;52.220;5.160;2022-08-05T07:18:37;2.40;;;0.20;;
68229;SDS011;55048;52.220;5.160;2022-08-05T07:21:04;2.10;;;0.35;;
68229;SDS011;55048;52.220;5.160;2022-08-05T07:23:29;0.65;;;0.30;;
68229;SDS011;55048;52.220;5.160;2022-08-05T07:25:55;4.25;;;0.60;;
68229;SDS011;55048;52.220;5.160;2022-08-05T07:28:20;1.02;;;0.20;;
68229;SDS011;55048;52.220;5.160;2022-08-05T07:30:46;1.10;;;0.30;;
68229;SDS011;55048;52.220;5.160;2022-08-05T07:33:11;1.27;;;0.40;;
68229;SDS011;55048;52.220;5.160;2022-08-05T07:35:37;3.05;;;0.38;;
68229;SDS011;55048;52.220;5.160;2022-08-05T07:38:03;1.05;;;0.20;;
68229;SDS011;55048;52.220;5.160;2022-08-05T07:40:29;1.60;;;0.20;;
68229;SDS011;55048;52.220;5.160;2022-08-05T07:42:54;0.90;;;0.20;;
68229;SDS011;55048;52.220;5.160;2022-08-05T07:45:19;1.38;;;0.20;;
68229;SDS011;55048;52.220;5.160;2022-08-05T07:47:45;1.05;;;0.30;;
68229;SDS011;55048;52.220;5.160;2022-08-05T07:50:10;1.85;;;0.20;;
68229;SDS011;55048;52.220;5.160;2022-08-05T07:52:42;1.13;;;0.30;;
68229;SDS011;55048;52.220;5.160;2022-08-05T07:55:08;2.17;;;0.22;;
68229;SDS011;55048;52.220;5.160;2022-08-05T07:57:34;3.17;;;0.30;;
68229;SDS011;55048;52.220;5.160;2022-08-05T08:00:00;0.80;;;0.20;;
68229;SDS011;55048;52.220;5.160;2022-08-05T08:02:26;2.40;;;0.30;;
68229;SDS011;55048;52.220;5.160;2022-08-05T08:04:53;1.20;;;0.20;;
68229;SDS011;55048;52.220;5.160;2022-08-05T08:07:19;3.03;;;0.30;;
68229;SDS011;55048;52.220;5.160;2022-08-05T08:09:45;2.85;;;0.30;;
68229;SDS011;55048;52.220;5.160;2022-08-05T08:12:11;1.40;;;0.20;;
68229;SDS011;55048;52.220;5.160;2022-08-05T08:14:37;2.47;;;0.25;;
68229;SDS011;55048;52.220;5.160;2022-08-05T08:17:03;0.38;;;0.10;;
68229;SDS011;55048;52.220;5.160;2022-08-05T08:19:28;1.88;;;0.28;;
68229;SDS011;55048;52.220;5.160;2022-08-05T08:21:54;0.95;;;0.20;;
68229;SDS011;55048;52.220;5.160;2022-08-05T08:24:19;1.52;;;0.17;;
68229;SDS011;55048;52.220;5.160;2022-08-05T08:26:44;0.50;;;0.10;;
68229;SDS011;55048;52.220;5.160;2022-08-05T08:29:10;5.13;;;0.20;;
68229;SDS011;55048;52.220;5.160;2022-08-05T08:31:35;1.15;;;0.20;;
68229;SDS011;55048;52.220;5.160;2022-08-05T08:34:00;0.73;;;0.20;;
68229;SDS011;55048;52.220;5.160;2022-08-05T08:36:26;2.42;;;0.20;;
68229;SDS011;55048;52.220;5.160;2022-08-05T08:38:51;1.83;;;0.30;;
68229;SDS011;55048;52.220;5.160;2022-08-05T08:41:19;7.00;;;0.30;;
68229;SDS011;55048;52.220;5.160;2022-08-05T08:43:46;3.75;;;0.30;;
68229;SDS011;55048;52.220;5.160;2022-08-05T08:46:14;2.55;;;0.28;;
68229;SDS011;55048;52.220;5.160;2022-08-05T08:48:41;1.42;;;0.20;;
68229;SDS011;55048;52.220;5.160;2022-08-05T08:51:10;2.72;;;0.30;;
68229;SDS011;55048;52.220;5.160;2022-08-05T08:53:36;1.52;;;0.22;;
68229;SDS011;55048;52.220;5.160;2022-08-05T08:56:03;2.78;;;0.13;;
68229;SDS011;55048;52.220;5.160;2022-08-05T08:58:29;2.50;;;0.40;;
68229;SDS011;55048;52.220;5.160;2022-08-05T09:00:55;3.25;;;0.17;;
68229;SDS011;55048;52.220;5.160;2022-08-05T09:03:21;1.25;;;0.28;;
68229;SDS011;55048;52.220;5.160;2022-08-05T09:05:48;1.92;;;0.30;;
68229;SDS011;55048;52.220;5.160;2022-08-05T09:08:13;2.47;;;0.20;;
68229;SDS011;55048;52.220;5.160;2022-08-05T09:10:39;1.90;;;0.20;;
68229;SDS011;55048;52.220;5.160;2022-08-05T09:13:05;3.58;;;0.30;;
68229;SDS011;55048;52.220;5.160;2022-08-05T09:15:31;1.42;;;0.20;;
68229;SDS011;55048;52.220;5.160;2022-08-05T09:17:57;3.47;;;0.22;;
68229;SDS011;55048;52.220;5.160;2022-08-05T09:20:23;4.57;;;0.40;;
68229;SDS011;55048;52.220;5.160;2022-08-05T09:25:26;2.30;;;0.20;;
68229;SDS011;55048;52.220;5.160;2022-08-05T09:27:51;3.20;;;0.20;;
68229;SDS011;55048;52.220;5.160;2022-08-05T09:30:17;6.10;;;0.30;;
68229;SDS011;55048;52.220;5.160;2022-08-05T09:32:42;2.85;;;0.40;;
68229;SDS011;55048;52.220;5.160;2022-08-05T09:35:12;2.97;;;0.20;;
68229;SDS011;55048;52.220;5.160;2022-08-05T09:37:48;0.63;;;0.20;;
68229;SDS011;55048;52.220;5.160;2022-08-05T09:40:32;4.10;;;0.38;;
68229;SDS011;55048;52.220;5.160;2022-08-05T09:43:03;3.42;;;0.30;;
68229;SDS011;55048;52.220;5.160;2022-08-05T09:45:38;1.35;;;0.10;;
68229;SDS011;55048;52.220;5.160;2022-08-05T09:51:07;1.15;;;0.20;;
68229;SDS011;55048;52.220;5.160;2022-08-05T09:53:46;1.55;;;0.10;;
68229;SDS011;55048;52.220;5.160;2022-08-05T09:56:13;2.15;;;0.13;;
68229;SDS011;55048;52.220;5.160;2022-08-05T10:01:33;1.40;;;0.20;;
68229;SDS011;55048;52.220;5.160;2022-08-05T10:06:53;2.20;;;0.10;;
68229;SDS011;55048;52.220;5.160;2022-08-05T10:09:20;1.25;;;0.20;;
68229;SDS011;55048;52.220;5.160;2022-08-05T10:11:46;0.80;;;0.10;;
68229;SDS011;55048;52.220;5.160;2022-08-05T10:16:51;0.43;;;0.10;;
68229;SDS011;55048;52.220;5.160;2022-08-05T10:19:20;6.73;;;0.10;;
68229;SDS011;55048;52.220;5.160;2022-08-05T10:21:46;1.52;;;0.10;;
68229;SDS011;55048;52.220;5.160;2022-08-05T10:24:13;2.22;;;0.15;;
68229;SDS011;55048;52.220;5.160;2022-08-05T10:26:44;1.02;;;0.10;;
68229;SDS011;55048;52.220;5.160;2022-08-05T10:29:11;0.32;;;0.10;;
68229;SDS011;55048;52.220;5.160;2022-08-05T10:31:36;0.70;;;0.10;;
68229;SDS011;55048;52.220;5.160;2022-08-05T10:34:04;0.80;;;0.10;;
68229;SDS011;55048;52.220;5.160;2022-08-05T10:36:31;1.65;;;0.10;;
68229;SDS011;55048;52.220;5.160;2022-08-05T10:38:58;0.75;;;0.10;;
68229;SDS011;55048;52.220;5.160;2022-08-05T10:41:35;1.00;;;0.40;;
68229;SDS011;55048;52.220;5.160;2022-08-05T10:44:05;0.13;;;0.10;;
68229;SDS011;55048;52.220;5.160;2022-08-05T10:47:36;1.48;;;0.10;;
68229;SDS011;55048;52.220;5.160;2022-08-05T10:50:20;1.02;;;0.20;;
68229;SDS011;55048;52.220;5.160;2022-08-05T10:52:43;1.83;;;0.17;;
68229;SDS011;55048;52.220;5.160;2022-08-05T10:55:24;1.48;;;0.10;;
68229;SDS011;55048;52.220;5.160;2022-08-05T10:58:06;4.22;;;0.20;;
68229;SDS011;55048;52.220;5.160;2022-08-05T11:00:36;0.50;;;0.10;;
68229;SDS011;55048;52.220;5.160;2022-08-05T11:05:30;4.72;;;0.68;;
68229;SDS011;55048;52.220;5.160;2022-08-05T11:07:57;3.30;;;0.20;;
68229;SDS011;55048;52.220;5.160;2022-08-05T11:10:25;1.00;;;0.20;;
68229;SDS011;55048;52.220;5.160;2022-08-05T11:12:51;0.85;;;0.10;;
68229;SDS011;55048;52.220;5.160;2022-08-05T11:17:52;1.60;;;0.10;;
68229;SDS011;55048;52.220;5.160;2022-08-05T11:26:06;7.70;;;0.28;;
68229;SDS011;55048;52.220;5.160;2022-08-05T11:33:31;6.15;;;0.30;;
68229;SDS011;55048;52.220;5.160;2022-08-05T11:36:02;0.47;;;0.10;;
68229;SDS011;55048;52.220;5.160;2022-08-05T11:41:13;0.90;;;0.15;;
68229;SDS011;55048;52.220;5.160;2022-08-05T11:43:51;5.85;;;0.20;;
68229;SDS011;55048;52.220;5.160;2022-08-05T11:47:06;2.47;;;0.10;;
68229;SDS011;55048;52.220;5.160;2022-08-05T11:49:14;2.50;;;0.10;;
68229;SDS011;55048;52.220;5.160;2022-08-05T11:51:42;1.50;;;0.17;;
68229;SDS011;55048;52.220;5.160;2022-08-05T11:54:09;3.05;;;0.20;;
68229;SDS011;55048;52.220;5.160;2022-08-05T11:56:51;0.63;;;0.10;;
68229;SDS011;55048;52.220;5.160;2022-08-05T11:59:19;1.50;;;0.20;;
68229;SDS011;55048;52.220;5.160;2022-08-05T12:04:26;3.42;;;0.25;;
68229;SDS011;55048;52.220;5.160;2022-08-05T12:07:02;1.92;;;0.40;;
68229;SDS011;55048;52.220;5.160;2022-08-05T12:09:28;3.50;;;0.40;;
68229;SDS011;55048;52.220;5.160;2022-08-05T12:11:54;2.47;;;0.30;;
68229;SDS011;55048;52.220;5.160;2022-08-05T12:14:20;2.00;;;0.32;;
68229;SDS011;55048;52.220;5.160;2022-08-05T12:16:45;0.60;;;0.20;;
68229;SDS011;55048;52.220;5.160;2022-08-05T12:19:11;3.83;;;0.30;;
68229;SDS011;55048;52.220;5.160;2022-08-05T12:21:42;4.38;;;0.20;;
68229;SDS011;55048;52.220;5.160;2022-08-05T12:24:10;2.58;;;0.22;;
68229;SDS011;55048;52.220;5.160;2022-08-05T12:26:41;6.68;;;0.40;;
68229;SDS011;55048;52.220;5.160;2022-08-05T12:29:12;2.75;;;0.30;;
68229;SDS011;55048;52.220;5.160;2022-08-05T12:34:11;1.77;;;0.20;;
68229;SDS011;55048;52.220;5.160;2022-08-05T12:36:37;2.38;;;0.22;;
68229;SDS011;55048;52.220;5.160;2022-08-05T12:39:03;1.75;;;0.30;;
68229;SDS011;55048;52.220;5.160;2022-08-05T12:41:30;5.50;;;0.30;;
68229;SDS011;55048;52.220;5.160;2022-08-05T12:44:01;3.33;;;0.25;;
68229;SDS011;55048;52.220;5.160;2022-08-05T12:46:29;2.15;;;0.20;;
68229;SDS011;55048;52.220;5.160;2022-08-05T12:48:57;2.38;;;0.30;;
68229;SDS011;55048;52.220;5.160;2022-08-05T12:51:22;3.20;;;0.30;;
68229;SDS011;55048;52.220;5.160;2022-08-05T12:53:48;1.70;;;0.30;;
68229;SDS011;55048;52.220;5.160;2022-08-05T12:56:14;3.42;;;0.20;;
68229;SDS011;55048;52.220;5.160;2022-08-05T12:58:45;1.55;;;0.20;;
68229;SDS011;55048;52.220;5.160;2022-08-05T13:01:12;2.83;;;0.30;;
68229;SDS011;55048;52.220;5.160;2022-08-05T13:03:38;4.60;;;0.20;;
68229;SDS011;55048;52.220;5.160;2022-08-05T13:06:07;3.33;;;0.20;;
68229;SDS011;55048;52.220;5.160;2022-08-05T13:08:36;2.75;;;0.20;;
68229;SDS011;55048;52.220;5.160;2022-08-05T13:11:02;0.35;;;0.10;;
68229;SDS011;55048;52.220;5.160;2022-08-05T13:13:28;3.13;;;0.20;;
68229;SDS011;55048;52.220;5.160;2022-08-05T13:15:54;1.35;;;0.20;;
68229;SDS011;55048;52.220;5.160;2022-08-05T13:18:19;1.23;;;0.10;;
68229;SDS011;55048;52.220;5.160;2022-08-05T13:20:45;2.92;;;0.10;;
68229;SDS011;55048;52.220;5.160;2022-08-05T13:23:10;3.75;;;0.20;;
68229;SDS011;55048;52.220;5.160;2022-08-05T13:25:36;2.05;;;0.17;;
68229;SDS011;55048;52.220;5.160;2022-08-05T13:28:02;1.92;;;0.10;;
68229;SDS011;55048;52.220;5.160;2022-08-05T13:30:29;1.80;;;0.10;;
68229;SDS011;55048;52.220;5.160;2022-08-05T13:32:54;2.13;;;0.15;;
68229;SDS011;55048;52.220;5.160;2022-08-05T13:35:20;2.40;;;0.20;;
68229;SDS011;55048;52.220;5.160;2022-08-05T13:37:46;0.82;;;0.10;;
68229;SDS011;55048;52.220;5.160;2022-08-05T13:40:12;1.92;;;0.20;;
68229;SDS011;55048;52.220;5.160;2022-08-05T13:42:38;3.83;;;0.20;;
68229;SDS011;55048;52.220;5.160;2022-08-05T13:45:04;1.13;;;0.20;;
68229;SDS011;55048;52.220;5.160;2022-08-05T13:47:32;3.58;;;0.10;;
68229;SDS011;55048;52.220;5.160;2022-08-05T13:49:58;1.58;;;0.13;;
68229;SDS011;55048;52.220;5.160;2022-08-05T13:52:24;4.85;;;0.35;;
68229;SDS011;55048;52.220;5.160;2022-08-05T13:54:53;1.48;;;0.17;;
68229;SDS011;55048;52.220;5.160;2022-08-05T13:57:19;2.08;;;0.10;;
68229;SDS011;55048;52.220;5.160;2022-08-05T13:59:45;1.45;;;0.10;;
68229;SDS011;55048;52.220;5.160;2022-08-05T14:02:11;3.92;;;0.20;;
68229;SDS011;55048;52.220;5.160;2022-08-05T14:04:38;3.05;;;0.20;;
68229;SDS011;55048;52.220;5.160;2022-08-05T14:07:29;1.50;;;0.17;;
68229;SDS011;55048;52.220;5.160;2022-08-05T14:09:56;2.30;;;0.10;;
68229;SDS011;55048;52.220;5.160;2022-08-05T14:12:27;0.63;;;0.10;;
68229;SDS011;55048;52.220;5.160;2022-08-05T14:14:52;0.63;;;0.10;;
68229;SDS011;55048;52.220;5.160;2022-08-05T14:17:18;1.83;;;0.20;;
68229;SDS011;55048;52.220;5.160;2022-08-05T14:19:43;2.83;;;0.20;;
68229;SDS011;55048;52.220;5.160;2022-08-05T14:22:09;0.85;;;0.20;;
68229;SDS011;55048;52.220;5.160;2022-08-05T14:24:35;1.15;;;0.20;;
68229;SDS011;55048;52.220;5.160;2022-08-05T14:27:02;3.13;;;0.20;;
68229;SDS011;55048;52.220;5.160;2022-08-05T14:29:28;3.13;;;0.30;;
68229;SDS011;55048;52.220;5.160;2022-08-05T14:31:53;6.78;;;0.30;;
68229;SDS011;55048;52.220;5.160;2022-08-05T14:34:19;6.38;;;0.38;;
68229;SDS011;55048;52.220;5.160;2022-08-05T14:36:44;4.68;;;0.40;;
68229;SDS011;55048;52.220;5.160;2022-08-05T14:39:09;3.83;;;0.25;;
68229;SDS011;55048;52.220;5.160;2022-08-05T14:41:35;3.60;;;0.30;;
68229;SDS011;55048;52.220;5.160;2022-08-05T14:44:00;2.63;;;0.40;;
68229;SDS011;55048;52.220;5.160;2022-08-05T14:46:26;5.80;;;0.50;;
68229;SDS011;55048;52.220;5.160;2022-08-05T14:48:52;2.95;;;0.20;;
68229;SDS011;55048;52.220;5.160;2022-08-05T14:51:18;1.52;;;0.20;;
68229;SDS011;55048;52.220;5.160;2022-08-05T14:53:43;2.65;;;0.28;;
68229;SDS011;55048;52.220;5.160;2022-08-05T14:56:09;3.28;;;0.35;;
68229;SDS011;55048;52.220;5.160;2022-08-05T14:58:35;2.55;;;0.20;;
68229;SDS011;55048;52.220;5.160;2022-08-05T15:01:00;2.47;;;0.22;;
68229;SDS011;55048;52.220;5.160;2022-08-05T15:03:26;4.47;;;0.28;;
68229;SDS011;55048;52.220;5.160;2022-08-05T15:05:52;0.93;;;0.20;;
68229;SDS011;55048;52.220;5.160;2022-08-05T15:08:18;1.15;;;0.20;;
68229;SDS011;55048;52.220;5.160;2022-08-05T15:10:43;1.55;;;0.20;;
68229;SDS011;55048;52.220;5.160;2022-08-05T15:13:08;3.92;;;0.20;;
68229;SDS011;55048;52.220;5.160;2022-08-05T15:15:34;2.47;;;0.30;;
68229;SDS011;55048;52.220;5.160;2022-08-05T15:17:59;1.60;;;0.20;;
68229;SDS011;55048;52.220;5.160;2022-08-05T15:20:25;2.15;;;0.20;;
68229;SDS011;55048;52.220;5.160;2022-08-05T15:22:53;2.50;;;0.25;;
68229;SDS011;55048;52.220;5.160;2022-08-05T15:25:22;1.13;;;0.20;;
68229;SDS011;55048;52.220;5.160;2022-08-05T15:27:48;1.67;;;0.28;;
68229;SDS011;55048;52.220;5.160;2022-08-05T15:30:13;4.15;;;0.20;;
68229;SDS011;55048;52.220;5.160;2022-08-05T15:32:39;2.03;;;0.40;;
68229;SDS011;55048;52.220;5.160;2022-08-05T15:35:04;5.47;;;0.30;;
68229;SDS011;55048;52.220;5.160;2022-08-05T15:37:30;1.45;;;0.22;;
68229;SDS011;55048;52.220;5.160;2022-08-05T15:39:55;2.35;;;0.52;;
68229;SDS011;55048;52.220;5.160;2022-08-05T15:42:24;2.60;;;0.15;;